sensor_id;sensor_type;location;lat;lon;timestamp;pressure;altitude;pressure_sealevel;temperature;humidity
8051;BME280;4068;42.158;24.732;2023-05-16T00:01:04;99471.50;;;13.90;100.00
8051;BME280;4068;42.158;24.732;2023-05-16T00:03:29;99491.38;;;14.05;100.00
8051;BME280;4068;42.158;24.732;2023-05-16T00:05:55;99470.38;;;13.92;100.00
8051;BME280;4068;42.158;24.732;2023-05-16T00:08:22;99493.34;;;14.03;100.00
8051;BME280;4068;42.158;24.732;2023-05-16T00:10:47;99489.13;;;14.01;100.00
8051;BME280;4068;42.158;24.732;2023-05-16T00:13:13;99492.50;;;14.03;100.00
8051;BME280;4068;42.158;24.732;2023-05-16T00:15:38;99494.31;;;14.02;100.00
8051;BME280;4068;42.158;24.732;2023-05-16T00:18:04;99494.75;;;13.97;100.00
8051;BME280;4068;42.158;24.732;2023-05-16T00:20:29;99486.63;;;13.99;100.00
8051;BME280;4068;42.158;24.732;2023-05-16T00:22:58;99466.75;;;13.84;100.00
8051;BME280;4068;42.158;24.732;2023-05-16T00:25:26;99459.50;;;13.76;100.00
8051;BME280;4068;42.158;24.732;2023-05-16T00:27:52;99481.63;;;13.86;100.00
8051;BME280;4068;42.158;24.732;2023-05-16T00:30:18;99482.19;;;13.90;100.00
8051;BME280;4068;42.158;24.732;2023-05-16T00:32:43;99481.31;;;13.89;100.00
8051;BME280;4068;42.158;24.732;2023-05-16T00:35:09;99485.00;;;13.88;100.00
8051;BME280;4068;42.158;24.732;2023-05-16T00:37:36;99484.13;;;13.88;100.00
8051;BME280;4068;42.158;24.732;2023-05-16T00:40:02;99479.94;;;13.85;100.00
8051;BME280;4068;42.158;24.732;2023-05-16T00:42:29;99469.72;;;13.80;100.00
8051;BME280;4068;42.158;24.732;2023-05-16T00:44:55;99463.69;;;13.78;100.00
8051;BME280;4068;42.158;24.732;2023-05-16T00:47:20;99477.97;;;13.87;100.00
8051;BME280;4068;42.158;24.732;2023-05-16T00:49:46;99475.47;;;13.86;100.00
8051;BME280;4068;42.158;24.732;2023-05-16T00:52:11;99444.09;;;13.70;100.00
8051;BME280;4068;42.158;24.732;2023-05-16T00:54:37;99470.81;;;13.88;100.00
8051;BME280;4068;42.158;24.732;2023-05-16T00:57:03;99461.41;;;13.84;100.00
8051;BME280;4068;42.158;24.732;2023-05-16T00:59:29;99439.59;;;13.70;100.00
8051;BME280;4068;42.158;24.732;2023-05-16T01:01:54;99469.00;;;13.88;100.00
8051;BME280;4068;42.158;24.732;2023-05-16T01:04:20;99462.44;;;13.83;100.00
8051;BME280;4068;42.158;24.732;2023-05-16T01:06:46;99465.09;;;13.83;100.00
8051;BME280;4068;42.158;24.732;2023-05-16T01:09:12;99457.91;;;13.83;100.00
8051;BME280;4068;42.158;24.732;2023-05-16T01:16:46;99445.06;;;13.69;100.00
8051;BME280;4068;42.158;24.732;2023-05-16T01:22:29;99450.41;;;13.69;100.00
8051;BME280;4068;42.158;24.732;2023-05-16T01:25:05;99454.47;;;13.73;100.00
8051;BME280;4068;42.158;24.732;2023-05-16T01:27:34;99453.06;;;13.69;100.00
8051;BME280;4068;42.158;24.732;2023-05-16T01:30:05;99429.41;;;13.56;100.00
8051;BME280;4068;42.158;24.732;2023-05-16T01:32:35;99452.09;;;13.70;100.00
8051;BME280;4068;42.158;24.732;2023-05-16T01:35:01;99450.41;;;13.69;100.00
8051;BME280;4068;42.158;24.732;2023-05-16T01:37:34;99443.53;;;13.66;100.00
8051;BME280;4068;42.158;24.732;2023-05-16T01:40:08;99438.34;;;13.64;100.00
8051;BME280;4068;42.158;24.732;2023-05-16T01:42:43;99438.50;;;13.63;100.00
8051;BME280;4068;42.158;24.732;2023-05-16T01:45:31;99433.47;;;13.60;100.00
8051;BME280;4068;42.158;24.732;2023-05-16T01:50:33;99422.56;;;13.43;100.00
8051;BME280;4068;42.158;24.732;2023-05-16T01:53:10;99435.19;;;13.51;100.00
8051;BME280;4068;42.158;24.732;2023-05-16T01:55:43;99427.88;;;13.53;100.00
8051;BME280;4068;42.158;24.732;2023-05-16T01:58:11;99424.13;;;13.46;100.00
8051;BME280;4068;42.158;24.732;2023-05-16T02:00:38;99393.72;;;13.29;100.00
8051;BME280;4068;42.158;24.732;2023-05-16T02:03:04;99409.13;;;13.45;100.00
8051;BME280;4068;42.158;24.732;2023-05-16T02:05:30;99393.88;;;13.37;100.00
8051;BME280;4068;42.158;24.732;2023-05-16T02:07:56;99393.41;;;13.32;100.00
8051;BME280;4068;42.158;24.732;2023-05-16T02:10:22;99399.06;;;13.39;100.00
8051;BME280;4068;42.158;24.732;2023-05-16T02:12:49;99375.38;;;13.26;100.00
8051;BME280;4068;42.158;24.732;2023-05-16T02:15:14;99405.78;;;13.43;100.00
8051;BME280;4068;42.158;24.732;2023-05-16T02:17:40;99396.69;;;13.36;100.00
8051;BME280;4068;42.158;24.732;2023-05-16T02:20:06;99413.75;;;13.43;100.00
8051;BME280;4068;42.158;24.732;2023-05-16T02:22:33;99417.69;;;13.39;100.00
8051;BME280;4068;42.158;24.732;2023-05-16T02:24:59;99414.34;;;13.37;100.00
8051;BME280;4068;42.158;24.732;2023-05-16T02:27:25;99412.94;;;13.33;100.00
8051;BME280;4068;42.158;24.732;2023-05-16T02:29:50;99404.94;;;13.33;100.00
8051;BME280;4068;42.158;24.732;2023-05-16T02:32:16;99401.84;;;13.27;100.00
8051;BME280;4068;42.158;24.732;2023-05-16T02:34:41;99393.44;;;13.22;100.00
8051;BME280;4068;42.158;24.732;2023-05-16T02:37:07;99400.47;;;13.23;100.00
8051;BME280;4068;42.158;24.732;2023-05-16T02:39:33;99390.78;;;13.22;100.00
8051;BME280;4068;42.158;24.732;2023-05-16T02:41:58;99391.78;;;13.21;100.00
8051;BME280;4068;42.158;24.732;2023-05-16T02:44:23;99387.28;;;13.22;100.00
8051;BME280;4068;42.158;24.732;2023-05-16T02:46:49;99385.75;;;13.19;100.00
8051;BME280;4068;42.158;24.732;2023-05-16T02:49:14;99376.50;;;13.13;100.00
8051;BME280;4068;42.158;24.732;2023-05-16T02:51:40;99376.22;;;13.17;100.00
8051;BME280;4068;42.158;24.732;2023-05-16T02:54:05;99376.22;;;13.17;100.00
8051;BME280;4068;42.158;24.732;2023-05-16T02:56:33;99382.13;;;13.20;100.00
8051;BME280;4068;42.158;24.732;2023-05-16T02:58:58;99380.88;;;13.15;100.00
8051;BME280;4068;42.158;24.732;2023-05-16T03:01:24;99393.75;;;13.19;100.00
8051;BME280;4068;42.158;24.732;2023-05-16T03:03:50;99403.72;;;13.17;100.00
8051;BME280;4068;42.158;24.732;2023-05-16T03:06:15;99413.09;;;13.21;100.00
8051;BME280;4068;42.158;24.732;2023-05-16T03:08:41;99410.66;;;13.28;100.00
8051;BME280;4068;42.158;24.732;2023-05-16T03:11:06;99390.69;;;13.14;100.00
8051;BME280;4068;42.158;24.732;2023-05-16T03:13:31;99409.41;;;13.32;100.00
8051;BME280;4068;42.158;24.732;2023-05-16T03:15:57;99411.69;;;13.37;100.00
8051;BME280;4068;42.158;24.732;2023-05-16T03:18:22;99423.56;;;13.42;100.00
8051;BME280;4068;42.158;24.732;2023-05-16T03:20:48;99427.75;;;13.45;100.00
8051;BME280;4068;42.158;24.732;2023-05-16T03:23:13;99387.41;;;13.30;100.00
8051;BME280;4068;42.158;24.732;2023-05-16T03:25:39;99413.16;;;13.49;100.00
8051;BME280;4068;42.158;24.732;2023-05-16T03:28:05;99415.38;;;13.54;100.00
8051;BME280;4068;42.158;24.732;2023-05-16T03:30:34;99421.72;;;13.53;100.00
8051;BME280;4068;42.158;24.732;2023-05-16T03:32:59;99396.53;;;13.37;100.00
8051;BME280;4068;42.158;24.732;2023-05-16T03:35:26;99397.97;;;13.59;100.00
8051;BME280;4068;42.158;24.732;2023-05-16T03:37:52;99373.22;;;13.49;100.00
8051;BME280;4068;42.158;24.732;2023-05-16T03:40:17;99395.31;;;13.59;100.00
8051;BME280;4068;42.158;24.732;2023-05-16T03:42:43;99415.88;;;13.77;100.00
8051;BME280;4068;42.158;24.732;2023-05-16T03:45:08;99420.50;;;13.75;100.00
8051;BME280;4068;42.158;24.732;2023-05-16T03:47:34;99431.69;;;13.88;100.00
8051;BME280;4068;42.158;24.732;2023-05-16T03:49:59;99393.97;;;13.83;100.00
8051;BME280;4068;42.158;24.732;2023-05-16T03:52:25;99428.66;;;14.01;100.00
8051;BME280;4068;42.158;24.732;2023-05-16T03:54:50;99426.56;;;13.95;100.00
8051;BME280;4068;42.158;24.732;2023-05-16T03:57:16;99424.84;;;14.04;100.00
8051;BME280;4068;42.158;24.732;2023-05-16T03:59:41;99408.03;;;14.03;100.00
8051;BME280;4068;42.158;24.732;2023-05-16T04:02:07;99412.22;;;14.06;100.00
8051;BME280;4068;42.158;24.732;2023-05-16T04:04:32;99417.19;;;14.19;100.00
8051;BME280;4068;42.158;24.732;2023-05-16T04:06:57;99414.94;;;14.24;100.00
8051;BME280;4068;42.158;24.732;2023-05-16T04:09:23;99404.16;;;14.33;100.00
8051;BME280;4068;42.158;24.732;2023-05-16T04:11:48;99406.41;;;14.38;100.00
8051;BME280;4068;42.158;24.732;2023-05-16T04:14:14;99409.97;;;14.47;100.00
8051;BME280;4068;42.158;24.732;2023-05-16T04:16:40;99394.97;;;14.46;100.00
8051;BME280;4068;42.158;24.732;2023-05-16T04:19:06;99377.91;;;14.57;100.00
8051;BME280;4068;42.158;24.732;2023-05-16T04:21:31;99399.69;;;14.88;100.00
8051;BME280;4068;42.158;24.732;2023-05-16T04:23:56;99407.06;;;15.12;100.00
8051;BME280;4068;42.158;24.732;2023-05-16T04:26:22;99406.22;;;15.38;100.00
8051;BME280;4068;42.158;24.732;2023-05-16T04:28:49;99409.19;;;15.61;100.00
8051;BME280;4068;42.158;24.732;2023-05-16T04:31:14;99422.72;;;15.94;100.00
8051;BME280;4068;42.158;24.732;2023-05-16T04:33:40;99413.75;;;16.03;100.00
8051;BME280;4068;42.158;24.732;2023-05-16T04:36:06;99405.72;;;16.12;100.00
8051;BME280;4068;42.158;24.732;2023-05-16T04:38:32;99424.22;;;16.48;100.00
8051;BME280;4068;42.158;24.732;2023-05-16T04:40:57;99431.25;;;16.65;100.00
8051;BME280;4068;42.158;24.732;2023-05-16T04:43:23;99433.00;;;16.91;100.00
8051;BME280;4068;42.158;24.732;2023-05-16T04:45:48;99446.56;;;16.98;100.00
8051;BME280;4068;42.158;24.732;2023-05-16T04:48:15;99448.56;;;17.12;100.00
8051;BME280;4068;42.158;24.732;2023-05-16T04:50:40;99441.84;;;17.00;100.00
8051;BME280;4068;42.158;24.732;2023-05-16T04:53:06;99452.56;;;16.91;100.00
8051;BME280;4068;42.158;24.732;2023-05-16T04:55:31;99422.22;;;16.83;100.00
8051;BME280;4068;42.158;24.732;2023-05-16T04:57:57;99452.41;;;17.01;100.00
8051;BME280;4068;42.158;24.732;2023-05-16T05:00:22;99445.88;;;16.96;100.00
8051;BME280;4068;42.158;24.732;2023-05-16T05:02:48;99444.53;;;17.00;100.00
8051;BME280;4068;42.158;24.732;2023-05-16T05:05:13;99457.91;;;17.33;100.00
8051;BME280;4068;42.158;24.732;2023-05-16T05:07:39;99468.28;;;17.52;100.00
8051;BME280;4068;42.158;24.732;2023-05-16T05:10:05;99474.78;;;17.74;100.00
8051;BME280;4068;42.158;24.732;2023-05-16T05:12:32;99465.69;;;17.92;100.00
8051;BME280;4068;42.158;24.732;2023-05-16T05:14:57;99469.00;;;18.02;100.00
8051;BME280;4068;42.158;24.732;2023-05-16T05:17:23;99475.53;;;18.00;100.00
8051;BME280;4068;42.158;24.732;2023-05-16T05:19:48;99468.69;;;17.97;100.00
8051;BME280;4068;42.158;24.732;2023-05-16T05:22:14;99466.31;;;18.02;100.00
8051;BME280;4068;42.158;24.732;2023-05-16T05:24:39;99452.78;;;17.87;100.00
8051;BME280;4068;42.158;24.732;2023-05-16T05:27:05;99441.69;;;17.99;100.00
8051;BME280;4068;42.158;24.732;2023-05-16T05:29:30;99441.53;;;18.00;100.00
8051;BME280;4068;42.158;24.732;2023-05-16T05:31:56;99466.75;;;18.14;100.00
8051;BME280;4068;42.158;24.732;2023-05-16T05:34:21;99460.81;;;18.27;100.00
8051;BME280;4068;42.158;24.732;2023-05-16T05:36:47;99466.81;;;18.45;100.00
8051;BME280;4068;42.158;24.732;2023-05-16T05:39:12;99462.72;;;18.50;100.00
8051;BME280;4068;42.158;24.732;2023-05-16T05:41:38;99456.31;;;18.59;100.00
8051;BME280;4068;42.158;24.732;2023-05-16T05:44:04;99442.16;;;18.65;100.00
8051;BME280;4068;42.158;24.732;2023-05-16T05:46:30;99443.13;;;18.72;100.00
8051;BME280;4068;42.158;24.732;2023-05-16T05:48:55;99444.72;;;18.90;100.00
8051;BME280;4068;42.158;24.732;2023-05-16T05:51:21;99436.09;;;18.94;100.00
8051;BME280;4068;42.158;24.732;2023-05-16T05:53:46;99408.97;;;18.81;100.00
8051;BME280;4068;42.158;24.732;2023-05-16T05:56:12;99447.41;;;18.90;100.00
8051;BME280;4068;42.158;24.732;2023-05-16T05:58:38;99454.44;;;18.59;100.00
8051;BME280;4068;42.158;24.732;2023-05-16T06:01:03;99451.16;;;18.49;100.00
8051;BME280;4068;42.158;24.732;2023-05-16T06:03:29;99438.34;;;18.28;100.00
8051;BME280;4068;42.158;24.732;2023-05-16T06:05:54;99430.66;;;18.25;100.00
8051;BME280;4068;42.158;24.732;2023-05-16T06:08:20;99435.25;;;18.16;100.00
8051;BME280;4068;42.158;24.732;2023-05-16T06:10:46;99409.19;;;17.85;100.00
8051;BME280;4068;42.158;24.732;2023-05-16T06:13:11;99436.69;;;17.79;100.00
8051;BME280;4068;42.158;24.732;2023-05-16T06:15:37;99453.34;;;17.66;100.00
8051;BME280;4068;42.158;24.732;2023-05-16T06:18:02;99444.97;;;17.61;100.00
8051;BME280;4068;42.158;24.732;2023-05-16T06:20:28;99435.09;;;17.62;100.00
8051;BME280;4068;42.158;24.732;2023-05-16T06:22:53;99456.31;;;17.80;100.00
8051;BME280;4068;42.158;24.732;2023-05-16T06:25:18;99465.31;;;17.87;100.00
8051;BME280;4068;42.158;24.732;2023-05-16T06:27:44;99445.94;;;17.68;100.00
8051;BME280;4068;42.158;24.732;2023-05-16T06:30:10;99424.69;;;17.58;100.00
8051;BME280;4068;42.158;24.732;2023-05-16T06:32:35;99422.75;;;17.19;100.00
8051;BME280;4068;42.158;24.732;2023-05-16T06:35:01;99435.81;;;17.22;100.00
8051;BME280;4068;42.158;24.732;2023-05-16T06:37:26;99427.94;;;17.21;100.00
8051;BME280;4068;42.158;24.732;2023-05-16T06:39:52;99440.47;;;17.45;100.00
8051;BME280;4068;42.158;24.732;2023-05-16T06:42:17;99416.16;;;17.55;100.00
8051;BME280;4068;42.158;24.732;2023-05-16T06:44:45;99396.44;;;17.31;100.00
8051;BME280;4068;42.158;24.732;2023-05-16T06:47:10;99414.38;;;17.39;100.00
8051;BME280;4068;42.158;24.732;2023-05-16T06:49:36;99428.94;;;17.36;100.00
8051;BME280;4068;42.158;24.732;2023-05-16T06:52:01;99418.22;;;17.45;100.00
8051;BME280;4068;42.158;24.732;2023-05-16T06:54:27;99412.06;;;17.75;100.00
8051;BME280;4068;42.158;24.732;2023-05-16T06:56:52;99405.66;;;17.85;100.00
8051;BME280;4068;42.158;24.732;2023-05-16T06:59:18;99413.19;;;17.98;100.00
8051;BME280;4068;42.158;24.732;2023-05-16T07:01:43;99396.94;;;17.91;100.00
8051;BME280;4068;42.158;24.732;2023-05-16T07:04:09;99420.84;;;18.09;100.00
8051;BME280;4068;42.158;24.732;2023-05-16T07:06:34;99423.09;;;18.28;100.00
8051;BME280;4068;42.158;24.732;2023-05-16T07:09:00;99420.75;;;18.80;100.00
8051;BME280;4068;42.158;24.732;2023-05-16T07:11:26;99394.16;;;18.85;100.00
8051;BME280;4068;42.158;24.732;2023-05-16T07:13:51;99381.34;;;18.72;100.00
8051;BME280;4068;42.158;24.732;2023-05-16T07:16:17;99411.25;;;18.92;100.00
8051;BME280;4068;42.158;24.732;2023-05-16T07:18:42;99393.22;;;19.01;100.00
8051;BME280;4068;42.158;24.732;2023-05-16T07:21:08;99406.06;;;19.29;100.00
8051;BME280;4068;42.158;24.732;2023-05-16T07:23:33;99401.78;;;19.35;98.96
8051;BME280;4068;42.158;24.732;2023-05-16T07:25:59;99401.06;;;19.71;97.87
8051;BME280;4068;42.158;24.732;2023-05-16T07:28:24;99407.88;;;19.81;96.12
8051;BME280;4068;42.158;24.732;2023-05-16T07:30:50;99399.41;;;19.99;95.94
8051;BME280;4068;42.158;24.732;2023-05-16T07:33:15;99395.94;;;20.06;94.15
8051;BME280;4068;42.158;24.732;2023-05-16T07:35:41;99398.22;;;19.87;94.91
8051;BME280;4068;42.158;24.732;2023-05-16T07:38:06;99401.97;;;19.78;96.21
8051;BME280;4068;42.158;24.732;2023-05-16T07:40:32;99401.88;;;20.16;94.98
8051;BME280;4068;42.158;24.732;2023-05-16T07:42:57;99391.06;;;20.52;92.33
8051;BME280;4068;42.158;24.732;2023-05-16T07:45:23;99390.69;;;20.56;91.83
8051;BME280;4068;42.158;24.732;2023-05-16T07:47:49;99389.72;;;20.42;92.65
8051;BME280;4068;42.158;24.732;2023-05-16T07:50:14;99393.44;;;20.04;93.25
8051;BME280;4068;42.158;24.732;2023-05-16T07:52:39;99389.75;;;20.05;93.98
8051;BME280;4068;42.158;24.732;2023-05-16T07:55:05;99398.03;;;20.25;93.68
8051;BME280;4068;42.158;24.732;2023-05-16T07:57:31;99381.69;;;20.27;94.81
8051;BME280;4068;42.158;24.732;2023-05-16T07:59:57;99368.75;;;20.59;93.20
8051;BME280;4068;42.158;24.732;2023-05-16T08:02:22;99363.56;;;20.79;91.70
8051;BME280;4068;42.158;24.732;2023-05-16T08:04:55;99361.31;;;20.61;91.90
8051;BME280;4068;42.158;24.732;2023-05-16T08:07:22;99358.28;;;20.27;94.42
8051;BME280;4068;42.158;24.732;2023-05-16T08:09:48;99362.19;;;20.46;94.58
8051;BME280;4068;42.158;24.732;2023-05-16T08:12:13;99359.91;;;20.43;94.03
8051;BME280;4068;42.158;24.732;2023-05-16T08:14:39;99359.91;;;20.43;93.69
8051;BME280;4068;42.158;24.732;2023-05-16T08:17:04;99369.91;;;20.49;92.96
8051;BME280;4068;42.158;24.732;2023-05-16T08:19:29;99362.28;;;20.53;92.14
8051;BME280;4068;42.158;24.732;2023-05-16T08:21:57;99364.06;;;20.24;93.53
8051;BME280;4068;42.158;24.732;2023-05-16T08:24:23;99355.69;;;20.34;94.30
8051;BME280;4068;42.158;24.732;2023-05-16T08:26:48;99365.88;;;20.39;93.87
8051;BME280;4068;42.158;24.732;2023-05-16T08:29:14;99358.16;;;20.57;93.39
8051;BME280;4068;42.158;24.732;2023-05-16T08:31:40;99339.09;;;20.74;92.99
8051;BME280;4068;42.158;24.732;2023-05-16T08:34:06;99359.94;;;20.93;91.76
8051;BME280;4068;42.158;24.732;2023-05-16T08:36:31;99373.56;;;21.13;91.23
8051;BME280;4068;42.158;24.732;2023-05-16T08:38:59;99366.81;;;21.52;89.27
8051;BME280;4068;42.158;24.732;2023-05-16T08:41:25;99349.22;;;21.63;88.42
8051;BME280;4068;42.158;24.732;2023-05-16T08:43:51;99326.84;;;21.69;87.98
8051;BME280;4068;42.158;24.732;2023-05-16T08:46:20;99324.81;;;21.85;85.25
8051;BME280;4068;42.158;24.732;2023-05-16T08:48:46;99351.50;;;22.15;87.03
8051;BME280;4068;42.158;24.732;2023-05-16T08:51:16;99338.28;;;22.33;85.18
8051;BME280;4068;42.158;24.732;2023-05-16T08:53:45;99328.38;;;21.99;86.04
8051;BME280;4068;42.158;24.732;2023-05-16T08:56:15;99334.56;;;21.86;88.39
8051;BME280;4068;42.158;24.732;2023-05-16T08:58:41;99339.75;;;21.87;88.46
8051;BME280;4068;42.158;24.732;2023-05-16T09:01:07;99334.72;;;22.33;85.76
8051;BME280;4068;42.158;24.732;2023-05-16T09:03:37;99336.53;;;22.26;84.06
8051;BME280;4068;42.158;24.732;2023-05-16T09:06:06;99300.75;;;21.83;86.42
8051;BME280;4068;42.158;24.732;2023-05-16T09:08:32;99321.72;;;21.95;88.09
8051;BME280;4068;42.158;24.732;2023-05-16T09:10:57;99324.09;;;22.18;86.69
8051;BME280;4068;42.158;24.732;2023-05-16T09:13:24;99320.81;;;22.63;85.20
8051;BME280;4068;42.158;24.732;2023-05-16T09:16:09;99333.94;;;22.72;83.00
8051;BME280;4068;42.158;24.732;2023-05-16T09:18:35;99305.88;;;22.73;82.85
8051;BME280;4068;42.158;24.732;2023-05-16T09:21:03;99326.13;;;22.02;85.34
8051;BME280;4068;42.158;24.732;2023-05-16T09:23:28;99323.53;;;21.39;90.82
8051;BME280;4068;42.158;24.732;2023-05-16T09:25:56;99318.84;;;22.03;88.06
8051;BME280;4068;42.158;24.732;2023-05-16T09:28:22;99306.63;;;22.27;86.21
8051;BME280;4068;42.158;24.732;2023-05-16T09:30:51;99333.31;;;22.64;85.07
8051;BME280;4068;42.158;24.732;2023-05-16T09:33:17;99318.34;;;22.95;83.91
8051;BME280;4068;42.158;24.732;2023-05-16T09:35:42;99313.31;;;22.91;83.49
8051;BME280;4068;42.158;24.732;2023-05-16T09:38:13;99307.94;;;22.65;83.44
8051;BME280;4068;42.158;24.732;2023-05-16T09:40:40;99284.41;;;22.32;85.95
8051;BME280;4068;42.158;24.732;2023-05-16T09:43:08;99272.38;;;22.28;86.32
8051;BME280;4068;42.158;24.732;2023-05-16T09:45:34;99288.72;;;21.93;87.56
8051;BME280;4068;42.158;24.732;2023-05-16T09:48:04;99289.09;;;21.83;88.96
8051;BME280;4068;42.158;24.732;2023-05-16T09:50:31;99294.47;;;21.76;89.47
8051;BME280;4068;42.158;24.732;2023-05-16T09:52:57;99268.72;;;21.25;92.17
8051;BME280;4068;42.158;24.732;2023-05-16T09:55:23;99244.09;;;21.35;91.33
8051;BME280;4068;42.158;24.732;2023-05-16T09:57:48;99265.09;;;21.46;90.92
8051;BME280;4068;42.158;24.732;2023-05-16T10:00:14;99270.16;;;21.69;89.22
8051;BME280;4068;42.158;24.732;2023-05-16T10:02:40;99275.59;;;21.83;91.34
8051;BME280;4068;42.158;24.732;2023-05-16T10:05:07;99273.34;;;22.00;89.24
8051;BME280;4068;42.158;24.732;2023-05-16T10:07:33;99282.09;;;22.15;88.23
8051;BME280;4068;42.158;24.732;2023-05-16T10:10:00;99297.13;;;22.51;88.18
8051;BME280;4068;42.158;24.732;2023-05-16T10:12:29;99299.22;;;22.76;86.13
8051;BME280;4068;42.158;24.732;2023-05-16T10:15:02;99301.28;;;22.61;88.02
8051;BME280;4068;42.158;24.732;2023-05-16T10:17:30;99297.50;;;23.15;85.47
8051;BME280;4068;42.158;24.732;2023-05-16T10:20:01;99261.84;;;23.38;84.85
8051;BME280;4068;42.158;24.732;2023-05-16T10:22:32;99254.16;;;23.42;83.84
8051;BME280;4068;42.158;24.732;2023-05-16T10:25:14;99261.94;;;23.70;83.79
8051;BME280;4068;42.158;24.732;2023-05-16T10:27:42;99245.50;;;23.65;82.59
8051;BME280;4068;42.158;24.732;2023-05-16T10:30:09;99245.84;;;23.37;83.05
8051;BME280;4068;42.158;24.732;2023-05-16T10:32:35;99249.22;;;23.25;83.10
8051;BME280;4068;42.158;24.732;2023-05-16T10:35:02;99257.34;;;23.05;84.48
8051;BME280;4068;42.158;24.732;2023-05-16T10:37:30;99260.44;;;23.29;84.39
8051;BME280;4068;42.158;24.732;2023-05-16T10:39:58;99251.47;;;23.35;83.25
8051;BME280;4068;42.158;24.732;2023-05-16T10:42:24;99235.38;;;23.47;84.12
8051;BME280;4068;42.158;24.732;2023-05-16T10:44:53;99233.00;;;24.03;81.27
8051;BME280;4068;42.158;24.732;2023-05-16T10:47:20;99223.25;;;24.52;79.96
8051;BME280;4068;42.158;24.732;2023-05-16T10:49:46;99229.78;;;24.88;79.52
8051;BME280;4068;42.158;24.732;2023-05-16T10:52:12;99214.88;;;25.16;77.63
8051;BME280;4068;42.158;24.732;2023-05-16T10:54:39;99213.06;;;25.28;76.02
8051;BME280;4068;42.158;24.732;2023-05-16T10:57:16;99197.88;;;24.90;76.48
8051;BME280;4068;42.158;24.732;2023-05-16T10:59:47;99213.44;;;24.76;77.66
8051;BME280;4068;42.158;24.732;2023-05-16T11:02:29;99225.59;;;24.49;78.45
8051;BME280;4068;42.158;24.732;2023-05-16T11:04:59;99213.84;;;24.55;78.17
8051;BME280;4068;42.158;24.732;2023-05-16T11:07:31;99201.56;;;24.52;79.05
8051;BME280;4068;42.158;24.732;2023-05-16T11:12:47;99195.50;;;24.32;78.83
8051;BME280;4068;42.158;24.732;2023-05-16T11:15:27;99197.59;;;24.04;80.58
8051;BME280;4068;42.158;24.732;2023-05-16T11:18:15;99184.94;;;23.98;82.55
8051;BME280;4068;42.158;24.732;2023-05-16T11:20:41;99174.22;;;23.78;83.34
8051;BME280;4068;42.158;24.732;2023-05-16T11:25:45;99205.28;;;24.07;82.68
8051;BME280;4068;42.158;24.732;2023-05-16T11:28:12;99192.97;;;24.11;82.13
8051;BME280;4068;42.158;24.732;2023-05-16T11:30:46;99198.22;;;24.32;81.78
8051;BME280;4068;42.158;24.732;2023-05-16T11:33:14;99182.78;;;24.07;81.27
8051;BME280;4068;42.158;24.732;2023-05-16T11:35:40;99184.06;;;23.66;83.32
8051;BME280;4068;42.158;24.732;2023-05-16T11:38:13;99209.38;;;23.46;84.04
8051;BME280;4068;42.158;24.732;2023-05-16T11:40:44;99209.00;;;23.36;85.30
8051;BME280;4068;42.158;24.732;2023-05-16T11:43:09;99177.53;;;23.48;85.63
8051;BME280;4068;42.158;24.732;2023-05-16T11:45:35;99187.75;;;23.78;84.15
8051;BME280;4068;42.158;24.732;2023-05-16T11:48:02;99198.75;;;23.83;83.77
8051;BME280;4068;42.158;24.732;2023-05-16T11:50:28;99203.94;;;23.91;83.66
8051;BME280;4068;42.158;24.732;2023-05-16T11:52:55;99194.22;;;24.09;82.12
8051;BME280;4068;42.158;24.732;2023-05-16T11:55:28;99187.75;;;23.78;82.34
8051;BME280;4068;42.158;24.732;2023-05-16T11:57:56;99160.16;;;23.63;83.93
8051;BME280;4068;42.158;24.732;2023-05-16T12:00:23;99188.38;;;24.12;82.49
8051;BME280;4068;42.158;24.732;2023-05-16T12:02:53;99182.47;;;24.22;82.11
8051;BME280;4068;42.158;24.732;2023-05-16T12:05:20;99166.09;;;24.54;80.90
8051;BME280;4068;42.158;24.732;2023-05-16T12:07:49;99167.34;;;24.76;82.34
8051;BME280;4068;42.158;24.732;2023-05-16T12:10:15;99157.41;;;25.07;80.00
8051;BME280;4068;42.158;24.732;2023-05-16T12:12:43;99174.00;;;25.29;78.21
8051;BME280;4068;42.158;24.732;2023-05-16T12:15:10;99196.38;;;25.31;78.81
8051;BME280;4068;42.158;24.732;2023-05-16T12:17:36;99180.97;;;25.07;79.15
8051;BME280;4068;42.158;24.732;2023-05-16T12:20:03;99201.03;;;25.06;78.80
8051;BME280;4068;42.158;24.732;2023-05-16T12:22:30;99189.50;;;24.73;80.44
8051;BME280;4068;42.158;24.732;2023-05-16T12:24:58;99193.78;;;24.81;78.86
8051;BME280;4068;42.158;24.732;2023-05-16T12:27:25;99180.63;;;24.59;78.97
8051;BME280;4068;42.158;24.732;2023-05-16T12:29:51;99189.50;;;24.73;80.46
8051;BME280;4068;42.158;24.732;2023-05-16T12:32:20;99187.53;;;24.99;80.19
8051;BME280;4068;42.158;24.732;2023-05-16T12:34:49;99185.63;;;25.37;77.50
8051;BME280;4068;42.158;24.732;2023-05-16T12:37:16;99158.81;;;25.47;77.53
8051;BME280;4068;42.158;24.732;2023-05-16T12:39:42;99172.00;;;25.43;76.10
8051;BME280;4068;42.158;24.732;2023-05-16T12:42:07;99179.84;;;25.33;75.26
8051;BME280;4068;42.158;24.732;2023-05-16T12:44:34;99136.53;;;25.08;75.83
8051;BME280;4068;42.158;24.732;2023-05-16T12:47:01;99144.91;;;25.06;77.02
8051;BME280;4068;42.158;24.732;2023-05-16T12:49:27;99124.13;;;25.00;78.30
8051;BME280;4068;42.158;24.732;2023-05-16T12:51:53;99137.09;;;25.28;78.55
8051;BME280;4068;42.158;24.732;2023-05-16T12:54:19;99143.13;;;25.61;75.00
8051;BME280;4068;42.158;24.732;2023-05-16T12:56:47;99120.88;;;25.40;75.13
8051;BME280;4068;42.158;24.732;2023-05-16T12:59:13;99092.25;;;25.68;74.59
8051;BME280;4068;42.158;24.732;2023-05-16T13:01:39;99101.84;;;25.71;74.32
8051;BME280;4068;42.158;24.732;2023-05-16T13:04:05;99108.03;;;25.47;75.05
8051;BME280;4068;42.158;24.732;2023-05-16T13:06:31;99094.31;;;24.63;76.73
8051;BME280;4068;42.158;24.732;2023-05-16T13:08:56;99107.31;;;24.54;77.23
8051;BME280;4068;42.158;24.732;2023-05-16T13:11:25;99103.53;;;24.37;78.81
8051;BME280;4068;42.158;24.732;2023-05-16T13:13:51;99112.75;;;24.54;77.64
8051;BME280;4068;42.158;24.732;2023-05-16T13:16:17;99096.34;;;24.68;76.97
8051;BME280;4068;42.158;24.732;2023-05-16T13:18:42;99109.66;;;24.51;78.31